createdAt,value
2023-10-26T00:28:33.522Z,65.50
2023-10-26T00:31:04.828Z,65.69
2023-10-26T00:35:03.416Z,65.86
2023-10-26T00:37:49.800Z,66.22
2023-10-26T00:40:23.253Z,66.40
2023-10-26T00:43:00.567Z,66.80
2023-10-26T01:01:58.871Z,69.23
2023-10-26T01:05:21.046Z,69.70
2023-10-26T01:13:09.402Z,71.79
2023-10-26T01:50:31.836Z,75.00
2023-10-26T01:53:00.536Z,74.93
2023-10-26T01:55:29.737Z,75.21
2023-10-26T01:58:01.342Z,76.34
2023-10-26T02:00:30.502Z,75.50
2023-10-26T02:02:58.946Z,76.59
2023-10-26T02:05:28.755Z,75.49
2023-10-26T02:08:00.206Z,74.99
2023-10-26T02:10:31.636Z,75.29
2023-10-26T02:13:00.836Z,74.42
2023-10-26T02:15:32.079Z,73.95
2023-10-26T02:18:00.125Z,73.38
2023-10-26T02:20:33.641Z,73.91
2023-10-26T02:23:02.615Z,74.72
2023-10-26T02:25:31.046Z,75.07
2023-10-26T02:27:59.699Z,75.29
2023-10-26T02:30:28.344Z,75.57
2023-10-26T02:32:57.072Z,75.95
2023-10-26T02:35:25.927Z,76.17
2023-10-26T02:37:55.011Z,76.43
2023-10-26T02:40:24.337Z,76.48
2023-10-26T02:42:53.608Z,76.90
2023-10-26T02:45:22.543Z,77.02
2023-10-26T02:47:51.809Z,77.03
2023-10-26T02:50:20.670Z,77.08
2023-10-26T02:55:27.680Z,77.16
2023-10-26T02:57:59.819Z,77.36
2023-10-26T03:00:28.340Z,77.35
2023-10-26T03:03:00.981Z,77.50
2023-10-26T03:05:30.051Z,77.69
2023-10-26T03:07:58.528Z,77.62
2023-10-26T03:10:26.964Z,77.80
2023-10-26T03:13:03.214Z,77.96
2023-10-26T03:15:32.602Z,77.58
2023-10-26T03:18:01.085Z,77.43
2023-10-26T03:20:29.781Z,77.58
2023-10-26T03:22:58.631Z,77.24
2023-10-26T03:25:58.056Z,77.16
2023-10-26T03:34:07.870Z,76.95
2023-10-26T03:39:24.375Z,76.90
2023-10-26T03:41:53.306Z,77.52
2023-10-26T03:44:22.180Z,77.46
2023-10-26T03:46:59.000Z,77.53
2023-10-26T03:52:11.870Z,77.51
2023-10-26T03:54:40.850Z,77.47
2023-10-26T03:59:36.778Z,77.41
2023-10-26T04:02:05.420Z,78.18
2023-10-26T04:04:58.286Z,77.63
2023-10-26T04:07:26.724Z,76.21
2023-10-26T04:09:58.032Z,75.84
2023-10-26T04:12:27.917Z,75.45
2023-10-26T04:14:57.147Z,75.66
2023-10-26T04:17:26.073Z,75.70
2023-10-26T04:19:55.100Z,75.67
2023-10-26T04:22:23.770Z,75.69
2023-10-26T04:24:52.667Z,75.52
2023-10-26T04:27:22.077Z,75.69
2023-10-26T04:29:51.615Z,76.65
2023-10-26T04:32:20.507Z,75.62
2023-10-26T04:34:48.991Z,74.42
2023-10-26T04:37:18.055Z,74.63
2023-10-26T04:39:46.961Z,75.33
2023-10-26T04:42:16.261Z,75.88
2023-10-26T04:44:45.271Z,76.81
2023-10-26T04:47:13.728Z,77.33
2023-10-26T04:49:43.526Z,77.49
2023-10-26T04:52:16.632Z,77.81
2023-10-26T04:54:45.616Z,77.97
2023-10-26T04:57:14.047Z,78.13
2023-10-26T04:59:42.643Z,78.47
2023-10-26T05:02:11.357Z,78.87
2023-10-26T05:04:43.478Z,78.91
2023-10-26T05:10:29.619Z,79.13
2023-10-26T05:12:58.261Z,79.73
2023-10-26T05:15:27.664Z,79.71
2023-10-26T05:17:56.264Z,80.06
2023-10-26T05:22:53.115Z,79.56
2023-10-26T05:25:27.776Z,78.98
2023-10-26T05:30:27.431Z,78.10
2023-10-26T05:32:56.023Z,76.95
2023-10-26T05:35:24.952Z,76.58
2023-10-26T05:37:54.394Z,76.07
2023-10-26T05:40:32.349Z,75.96
2023-10-26T05:43:01.058Z,76.51
2023-10-26T05:45:31.497Z,77.31
2023-10-26T05:48:02.696Z,76.63
2023-10-26T05:50:31.053Z,75.93
2023-10-26T05:52:59.426Z,76.64
2023-10-26T05:55:27.831Z,76.85
2023-10-26T05:57:56.197Z,76.40
2023-10-26T06:00:24.786Z,75.52
2023-10-26T06:02:53.306Z,75.13
2023-10-26T06:05:22.356Z,74.94
2023-10-26T06:07:51.136Z,74.73
2023-10-26T06:10:19.785Z,75.05
2023-10-26T06:12:48.393Z,74.03
2023-10-26T06:15:18.384Z,73.63
2023-10-26T06:17:47.036Z,72.75
2023-10-26T06:20:16.377Z,72.76
2023-10-26T06:22:45.390Z,72.34
2023-10-26T06:25:14.135Z,72.05
2023-10-26T06:27:42.777Z,71.20
2023-10-26T06:30:27.690Z,68.00
2023-10-26T06:32:56.094Z,69.62
2023-10-26T06:35:25.117Z,68.88
2023-10-26T06:37:53.792Z,68.46
2023-10-26T06:40:23.021Z,67.39
2023-10-26T06:42:51.561Z,66.80
2023-10-26T06:45:30.919Z,70.20
2023-10-26T06:47:59.474Z,71.26
2023-10-26T06:50:28.058Z,70.69
2023-10-26T06:52:57.247Z,70.56
2023-10-26T06:55:30.919Z,69.42
2023-10-26T06:57:59.938Z,68.04
2023-10-26T07:00:28.982Z,67.43
2023-10-26T07:02:57.403Z,66.47
2023-10-26T07:05:25.844Z,64.85
2023-10-26T07:07:54.490Z,60.04
2023-10-26T07:10:23.167Z,63.19
2023-10-26T07:12:51.791Z,63.18
2023-10-26T07:15:20.544Z,61.21
2023-10-26T07:17:49.308Z,59.42
2023-10-26T07:20:18.006Z,58.79
2023-10-26T07:22:55.837Z,56.14
2023-10-26T07:25:24.284Z,57.17
2023-10-26T07:27:52.816Z,57.26
2023-10-26T07:30:21.648Z,56.96
2023-10-26T07:32:50.435Z,57.87
2023-10-26T07:35:19.291Z,56.94
2023-10-26T07:38:09.324Z,55.72
2023-10-26T07:40:54.434Z,57.71
2023-10-26T07:43:23.479Z,57.97
2023-10-26T07:45:53.381Z,58.20
2023-10-26T07:48:22.545Z,58.32
2023-10-26T07:50:57.329Z,58.56
2023-10-26T07:53:26.187Z,58.04
2023-10-26T07:55:58.820Z,58.36
2023-10-26T07:58:32.078Z,58.37
2023-10-26T08:01:00.569Z,58.77
2023-10-26T08:03:58.825Z,58.61
2023-10-26T08:06:27.555Z,58.95
2023-10-26T08:08:55.902Z,58.99
2023-10-26T08:11:25.248Z,59.08
2023-10-26T08:13:53.796Z,58.72
2023-10-26T08:16:40.708Z,58.09
2023-10-26T08:19:11.443Z,58.22
2023-10-26T08:24:15.485Z,62.28
2023-10-26T08:26:55.821Z,61.54
2023-10-26T08:29:28.052Z,61.22
2023-10-26T08:31:58.495Z,60.43
2023-10-26T08:34:30.280Z,59.49
2023-10-26T08:39:26.893Z,62.25
2023-10-26T08:42:00.538Z,62.05
2023-10-26T08:44:31.967Z,63.55
2023-10-26T08:47:01.716Z,62.52
2023-10-26T08:52:06.098Z,62.36
2023-10-26T08:54:53.871Z,59.65
2023-10-26T08:57:22.194Z,58.60
2023-10-26T08:59:54.773Z,60.71
2023-10-26T09:02:23.219Z,62.44
2023-10-26T09:05:09.363Z,57.00
2023-10-26T09:07:38.376Z,59.34
2023-10-26T09:13:08.230Z,61.27
2023-10-26T09:16:00.384Z,55.28
2023-10-26T09:18:29.935Z,55.71
2023-10-26T09:21:10.151Z,57.20
2023-10-26T09:23:42.224Z,58.48
2023-10-26T09:28:52.204Z,57.25
2023-10-26T09:31:21.274Z,57.65
2023-10-26T09:33:50.327Z,57.93
2023-10-26T09:36:20.588Z,60.62
2023-10-26T09:38:50.401Z,61.71
2023-10-26T09:41:21.060Z,61.32
2023-10-26T09:43:50.279Z,58.75
2023-10-26T09:48:48.030Z,57.04
2023-10-26T09:51:23.536Z,56.88
2023-10-26T09:53:53.267Z,58.17
2023-10-26T09:56:30.085Z,59.63
2023-10-26T09:59:00.310Z,61.04
2023-10-26T10:01:39.409Z,61.15
2023-10-26T10:04:09.938Z,61.53
2023-10-26T10:07:02.959Z,62.44
2023-10-26T10:09:32.482Z,62.11
2023-10-26T10:12:08.013Z,62.69
2023-10-26T10:15:05.707Z,63.54
2023-10-26T10:17:45.919Z,63.36
2023-10-26T10:20:35.968Z,63.99
2023-10-26T10:25:55.172Z,63.96
2023-10-26T10:28:23.601Z,63.79
2023-10-26T10:30:57.803Z,63.86
2023-10-26T10:33:28.315Z,63.33
2023-10-26T10:36:03.965Z,64.83
2023-10-26T10:38:33.836Z,64.38
2023-10-26T10:41:02.627Z,65.74
2023-10-26T10:43:36.559Z,66.42
2023-10-26T10:46:28.350Z,65.21
2023-10-26T10:48:56.790Z,63.79
2023-10-26T10:51:31.417Z,62.31
2023-10-26T10:54:06.017Z,61.54
2023-10-26T10:56:45.003Z,60.65
2023-10-26T10:59:27.970Z,57.88
2023-10-26T11:02:11.287Z,57.49
2023-10-26T11:07:36.210Z,58.83
2023-10-26T11:10:05.896Z,59.46
2023-10-26T11:12:34.323Z,61.31
2023-10-26T11:15:03.651Z,60.31
2023-10-26T11:17:33.955Z,60.08
2023-10-26T11:20:54.589Z,58.38
2023-10-26T11:23:26.013Z,59.07
2023-10-26T11:25:53.951Z,58.96
2023-10-26T11:28:49.586Z,59.19
2023-10-26T11:31:18.593Z,59.87
2023-10-26T11:33:47.034Z,60.08
2023-10-26T11:36:16.032Z,61.05
2023-10-26T11:38:51.719Z,61.24
2023-10-26T11:41:27.433Z,62.22
2023-10-26T11:43:56.581Z,62.40
2023-10-26T11:46:36.159Z,62.83
2023-10-26T11:49:08.546Z,63.30
2023-10-26T11:51:40.481Z,63.89
2023-10-26T11:54:30.625Z,64.05
2023-10-26T11:56:59.692Z,64.28
2023-10-26T11:59:30.780Z,64.63
2023-10-26T12:02:19.803Z,65.42
2023-10-26T12:04:52.310Z,65.61
2023-10-26T12:10:17.245Z,66.41
2023-10-26T12:12:46.547Z,66.42
2023-10-26T12:15:15.126Z,66.12
2023-10-26T12:17:43.709Z,65.41
2023-10-26T12:20:13.211Z,64.90
2023-10-26T12:22:52.107Z,63.95
2023-10-26T12:25:21.052Z,63.40
2023-10-26T12:28:19.972Z,63.05
2023-10-26T12:30:47.552Z,62.23
2023-10-26T12:36:47.647Z,62.41
2023-10-26T12:39:47.204Z,62.26
2023-10-26T12:42:45.721Z,62.18
2023-10-26T12:48:18.745Z,63.92
2023-10-26T12:50:47.175Z,65.04
2023-10-26T12:53:16.070Z,66.02
2023-10-26T12:58:15.947Z,66.46
2023-10-26T13:00:50.374Z,65.85
2023-10-26T13:03:46.147Z,65.46
2023-10-26T13:09:01.373Z,64.82
2023-10-26T13:11:39.634Z,65.02
2023-10-26T13:14:16.587Z,65.29
2023-10-26T13:19:15.107Z,64.59
2023-10-26T13:21:46.739Z,64.98
2023-10-26T13:24:15.164Z,65.01
2023-10-26T13:26:48.758Z,65.06
2023-10-26T13:29:17.212Z,64.71
2023-10-26T13:31:45.814Z,64.66
2023-10-26T13:34:14.204Z,64.88
2023-10-26T13:39:45.735Z,65.58
2023-10-26T13:42:17.682Z,66.17
2023-10-26T13:48:52.209Z,67.45
2023-10-26T13:51:53.213Z,67.42
2023-10-26T13:58:45.341Z,66.71
2023-10-26T14:05:47.133Z,67.77
2023-10-26T14:30:48.918Z,70.39
2023-10-26T15:16:42.719Z,66.25
2023-10-26T15:19:12.457Z,65.95
2023-10-26T15:21:40.942Z,65.54
2023-10-26T15:45:17.892Z,61.24
2023-10-26T17:01:43.713Z,47.52
2023-10-26T17:04:43.739Z,44.08
2023-10-26T17:07:44.930Z,46.00
2023-10-26T17:14:09.714Z,42.22
2023-10-26T17:17:37.743Z,43.91
2023-10-26T17:20:36.876Z,43.08
2023-10-26T17:23:42.111Z,43.12
2023-10-26T17:26:45.419Z,43.55
2023-10-26T17:38:40.414Z,44.79
2023-10-26T17:47:24.815Z,44.12
2023-10-26T17:54:09.782Z,44.86
2023-10-26T18:09:06.968Z,40.78
2023-10-26T18:11:37.545Z,41.54
2023-10-26T18:14:06.187Z,41.86
2023-10-26T18:16:36.669Z,43.23
2023-10-26T18:19:06.662Z,43.57
2023-10-26T18:22:08.288Z,44.06
2023-10-26T18:27:39.705Z,43.72
2023-10-26T18:30:09.336Z,44.83
2023-10-26T18:33:10.699Z,44.08
2023-10-26T18:38:38.213Z,44.48
2023-10-26T18:41:06.989Z,45.19
2023-10-26T18:47:04.462Z,43.49
2023-10-26T18:49:38.850Z,44.09
2023-10-26T18:52:10.458Z,43.80
2023-10-26T18:55:11.374Z,42.91
2023-10-26T18:58:04.996Z,44.06
2023-10-26T19:00:42.069Z,43.36
2023-10-26T19:03:11.791Z,42.56
2023-10-26T19:06:07.154Z,43.10
2023-10-26T19:09:05.403Z,42.60
2023-10-26T19:11:34.727Z,43.30
2023-10-26T19:14:08.697Z,41.31
2023-10-26T19:20:07.888Z,36.14
2023-10-26T19:22:39.203Z,38.32
2023-10-26T19:25:08.393Z,36.63
2023-10-26T19:27:39.333Z,35.63
2023-10-26T19:30:07.762Z,33.30
2023-10-26T19:32:36.404Z,34.51
2023-10-26T19:35:05.674Z,34.83
2023-10-26T19:37:34.650Z,35.00
2023-10-26T19:40:09.789Z,34.48
2023-10-26T19:45:34.423Z,35.42
2023-10-26T19:48:04.528Z,35.01
2023-10-26T19:50:33.789Z,34.60
2023-10-26T19:53:06.236Z,33.69
2023-10-26T19:55:35.088Z,33.71
2023-10-26T19:58:05.832Z,32.26
2023-10-26T20:00:34.209Z,32.02
2023-10-26T20:03:06.163Z,33.59
2023-10-26T20:05:34.574Z,34.28
2023-10-26T20:08:06.106Z,32.55
2023-10-26T20:11:08.534Z,32.52
2023-10-26T20:13:36.561Z,34.89
2023-10-26T20:16:12.879Z,35.14
2023-10-26T20:19:06.424Z,34.09
2023-10-26T20:21:36.551Z,34.63
2023-10-26T20:24:09.129Z,32.50
2023-10-26T20:26:39.739Z,31.71
2023-10-26T20:29:37.092Z,31.37
2023-10-26T20:32:09.481Z,31.15
2023-10-26T20:34:38.800Z,31.19
2023-10-26T20:37:12.608Z,31.34
2023-10-26T20:39:45.065Z,32.76
2023-10-26T20:42:13.711Z,33.44
2023-10-26T20:44:42.234Z,33.96
2023-10-26T20:47:10.653Z,33.20
2023-10-26T20:49:39.483Z,33.47
2023-10-26T20:52:08.652Z,33.43
2023-10-26T20:54:37.662Z,32.97
2023-10-26T20:57:06.672Z,33.20
2023-10-26T20:59:39.387Z,32.59
2023-10-26T21:02:08.547Z,32.89
2023-10-26T21:04:37.500Z,33.14
2023-10-26T21:10:07.720Z,32.38
2023-10-26T21:12:36.909Z,32.75
2023-10-26T21:15:18.386Z,32.55
2023-10-26T21:20:43.028Z,33.53
2023-10-26T21:23:46.081Z,32.72
2023-10-26T21:26:39.205Z,33.79
2023-10-26T21:33:37.422Z,33.39
2023-10-26T21:37:16.788Z,33.91
2023-10-26T21:39:38.462Z,33.82
2023-10-26T21:42:17.808Z,34.39
2023-10-26T21:48:35.523Z,32.89
2023-10-26T21:53:41.169Z,33.85
2023-10-26T21:56:10.237Z,33.93
2023-10-26T21:58:38.982Z,33.71
2023-10-26T22:01:09.093Z,34.25
2023-10-26T22:04:22.560Z,34.06
2023-10-26T22:09:07.674Z,34.79
2023-10-26T22:14:38.543Z,34.62
2023-10-26T22:17:34.989Z,33.01
2023-10-26T22:20:10.721Z,32.96
2023-10-26T22:22:42.431Z,33.93
2023-10-26T22:25:38.307Z,33.41
2023-10-26T22:28:13.374Z,34.38
2023-10-26T22:30:41.831Z,33.28
2023-10-26T22:33:12.862Z,33.39
2023-10-26T22:35:41.314Z,33.39
2023-10-26T22:38:11.986Z,33.42
2023-10-26T22:40:40.585Z,34.20
2023-10-26T22:43:34.498Z,34.02
2023-10-26T22:49:09.733Z,37.12
2023-10-26T22:51:41.898Z,37.58
2023-10-26T22:54:17.412Z,37.95
2023-10-26T22:56:46.124Z,37.79
2023-10-26T22:59:21.761Z,37.78
2023-10-26T23:02:06.227Z,38.09
2023-10-26T23:04:44.842Z,38.47
2023-10-26T23:07:21.753Z,37.67
2023-10-26T23:10:21.763Z,38.37
2023-10-26T23:16:04.081Z,39.27
2023-10-26T23:18:32.296Z,40.07
2023-10-26T23:21:11.761Z,39.11
2023-10-26T23:23:45.741Z,39.30
2023-10-26T23:26:17.782Z,39.29
2023-10-26T23:28:49.013Z,39.01
2023-10-26T23:31:33.040Z,39.20
2023-10-26T23:34:05.394Z,39.95
2023-10-26T23:36:43.095Z,39.62
2023-10-26T23:39:35.089Z,39.65
2023-10-26T23:42:06.816Z,39.20
2023-10-26T23:44:37.886Z,40.21
2023-10-26T23:47:07.573Z,40.43
2023-10-26T23:49:36.286Z,40.77
2023-10-26T23:52:04.784Z,40.89
2023-10-26T23:54:34.150Z,41.48
2023-10-26T23:57:02.947Z,41.22
2023-10-26T23:59:32.352Z,41.19
